Time;durP1;ratioP1;P1;durP2;ratioP2;P2;SDS_P1;SDS_P2;PMS_P1;PMS_P2;Temp;Humidity;BMP_temperature;BMP_pressure;BME280_temperature;BME280_humidity;BME280_pressure;Samples;Min_cycle;Max_cycle;Signal;HPM_P1;HPM_P2
2023/09/06 00:02:04;;;;;;;9.00;6.90;;;;;;;10.96;78.30;100657.73;217497;1261;140371;-67
2023/09/06 00:07:08;;;;;;;10.10;5.60;;;;;;;10.90;78.41;100652.51;218265;1259;143456;-67
2023/09/06 00:12:13;;;;;;;8.50;5.90;;;;;;;10.84;78.86;100661.23;218047;1256;140341;-68
2023/09/06 00:17:16;;;;;;;11.30;6.50;;;;;;;10.82;79.14;100658.79;217492;1261;141800;-67
2023/09/06 00:22:20;;;;;;;10.00;7.20;;;;;;;10.83;79.26;100650.29;218042;1257;140601;-67
2023/09/06 00:27:23;;;;;;;11.70;6.10;;;;;;;10.89;79.41;100645.00;217906;1260;140823;-72
2023/09/06 00:32:27;;;;;;;10.10;7.70;;;;;;;10.93;79.34;100643.26;218604;1256;142134;-71
2023/09/06 00:37:42;;;;;;;16.30;6.80;;;;;;;10.94;79.34;100649.28;217771;1258;140535;-74
2023/09/06 00:42:56;;;;;;;7.60;6.70;;;;;;;10.93;79.18;100654.70;217622;1256;140339;-72
2023/09/06 00:48:01;;;;;;;11.60;8.40;;;;;;;10.86;79.19;100653.77;218220;1257;140539;-73
2023/09/06 00:53:07;;;;;;;12.00;7.30;;;;;;;10.78;79.12;100647.80;217867;1257;140606;-72
2023/09/06 00:58:16;;;;;;;8.70;7.50;;;;;;;10.71;79.13;100647.10;219220;1260;140557;-70
2023/09/06 01:03:19;;;;;;;11.60;6.70;;;;;;;10.66;79.42;100638.54;218720;1257;141316;-71
2023/09/06 01:08:39;;;;;;;12.00;8.00;;;;;;;10.61;79.64;100629.73;219040;1260;141039;-70
2023/09/06 01:13:42;;;;;;;12.80;8.40;;;;;;;10.61;79.90;100637.48;219632;1257;140147;-71
2023/09/06 01:18:46;;;;;;;12.50;7.50;;;;;;;10.67;80.10;100640.38;220225;1256;141509;-70
2023/09/06 01:23:51;;;;;;;14.20;8.40;;;;;;;10.63;79.80;100638.66;219949;1257;140813;-70
2023/09/06 01:28:55;;;;;;;13.20;9.20;;;;;;;10.59;79.73;100629.75;218980;1257;140060;-69
2023/09/06 01:33:59;;;;;;;10.10;7.50;;;;;;;10.61;79.94;100635.23;217578;1259;140261;-69
2023/09/06 01:39:06;;;;;;;13.70;9.90;;;;;;;10.59;79.80;100631.46;218565;1260;141052;-70
2023/09/06 01:44:11;;;;;;;13.70;9.10;;;;;;;10.51;79.87;100627.43;219067;1257;140413;-70
2023/09/06 01:49:15;;;;;;;9.30;7.50;;;;;;;10.50;80.12;100617.48;217782;1259;140831;-69
2023/09/06 01:54:19;;;;;;;11.30;7.80;;;;;;;10.45;79.91;100617.90;218336;1260;140353;-70
2023/09/06 01:59:23;;;;;;;12.90;8.20;;;;;;;10.41;80.08;100624.80;217736;1259;141570;-70
2023/09/06 02:04:27;;;;;;;10.20;8.00;;;;;;;10.41;80.20;100626.44;217593;1257;140517;-70
2023/09/06 02:09:31;;;;;;;12.70;8.90;;;;;;;10.38;80.34;100622.73;218048;1256;140499;-68
2023/09/06 02:14:34;;;;;;;10.20;7.40;;;;;;;10.39;80.48;100624.25;218460;1257;140712;-67
2023/09/06 02:19:38;;;;;;;8.90;7.30;;;;;;;10.37;80.24;100624.43;218044;1257;140290;-67
2023/09/06 02:24:41;;;;;;;14.30;8.60;;;;;;;10.28;80.30;100628.33;218188;1257;140232;-68
2023/09/06 02:29:45;;;;;;;13.80;7.80;;;;;;;10.27;80.64;100634.67;218673;1260;141106;-70
2023/09/06 02:34:49;;;;;;;10.70;7.60;;;;;;;10.27;80.53;100639.15;217905;1261;141058;-70
2023/09/06 02:39:55;;;;;;;16.20;8.70;;;;;;;10.25;80.57;100640.09;218075;1259;141582;-68
2023/09/06 02:44:59;;;;;;;10.50;6.60;;;;;;;10.16;80.54;100641.23;218605;1257;140414;-72
2023/09/06 02:50:06;;;;;;;8.20;6.50;;;;;;;10.09;80.80;100638.35;217677;1260;141044;-70
2023/09/06 02:55:13;;;;;;;11.90;8.30;;;;;;;10.06;81.05;100641.94;218606;1257;141416;-70
2023/09/06 03:00:26;;;;;;;10.20;7.50;;;;;;;10.09;81.14;100646.23;217904;1260;139794;-71
2023/09/06 03:05:30;;;;;;;13.50;8.60;;;;;;;10.09;81.15;100648.76;220547;1257;139736;-71
2023/09/06 03:10:35;;;;;;;11.60;7.40;;;;;;;10.08;81.15;100652.37;220327;1260;153633;-68
2023/09/06 03:15:37;;;;;;;10.00;6.90;;;;;;;10.08;81.06;100656.55;220213;1257;140401;-69
2023/09/06 03:20:43;;;;;;;9.40;6.80;;;;;;;10.04;80.86;100657.14;218841;1259;140688;-68
2023/09/06 03:25:53;;;;;;;8.10;6.10;;;;;;;9.99;80.68;100660.52;217930;1257;141050;-70
2023/09/06 03:30:58;;;;;;;20.70;7.60;;;;;;;9.93;80.86;100664.58;218319;1258;140575;-69
2023/09/06 03:36:07;;;;;;;9.60;6.60;;;;;;;9.88;81.07;100664.83;217847;1260;140194;-69
2023/09/06 03:41:11;;;;;;;11.50;8.10;;;;;;;9.85;81.34;100671.87;218521;1260;140401;-70
2023/09/06 03:46:16;;;;;;;13.10;7.70;;;;;;;9.86;81.64;100674.86;217865;1257;140406;-69
2023/09/06 03:51:21;;;;;;;7.90;7.00;;;;;;;9.88;81.64;100674.82;218575;1259;141378;-68
2023/09/06 03:56:27;;;;;;;6.90;5.70;;;;;;;9.83;81.25;100681.30;218249;1260;139629;-71
2023/09/06 04:01:32;;;;;;;11.20;8.10;;;;;;;9.73;81.27;100669.29;217527;1257;140180;-71
2023/09/06 04:06:37;;;;;;;7.40;6.60;;;;;;;9.68;81.40;100675.22;218206;1258;143012;-70
2023/09/06 04:11:41;;;;;;;11.10;6.70;;;;;;;9.65;81.55;100674.69;217629;1263;140193;-70
2023/09/06 04:16:45;;;;;;;10.40;6.80;;;;;;;9.64;81.79;100672.55;217720;1260;140318;-68
2023/09/06 04:21:49;;;;;;;7.90;6.20;;;;;;;9.64;81.96;100673.30;218181;1257;141549;-67
2023/09/06 04:26:52;;;;;;;9.40;6.00;;;;;;;9.64;82.02;100674.08;217519;1260;139990;-67
2023/09/06 04:31:55;;;;;;;8.90;6.80;;;;;;;9.65;82.16;100678.94;217953;1257;141848;-67
2023/09/06 04:36:58;;;;;;;13.50;6.40;;;;;;;9.68;82.33;100685.79;217778;1260;140322;-66
2023/09/06 04:42:01;;;;;;;7.70;5.90;;;;;;;9.72;82.43;100684.06;218423;1260;140870;-67
2023/09/06 04:47:04;;;;;;;10.70;6.70;;;;;;;9.78;82.68;100681.11;217813;1258;140228;-69
2023/09/06 04:52:08;;;;;;;11.60;7.00;;;;;;;9.89;82.97;100688.09;219855;1257;140091;-68
2023/09/06 04:57:11;;;;;;;13.20;7.20;;;;;;;10.05;82.92;100696.20;218519;1261;140753;-71
2023/09/06 05:02:16;;;;;;;10.40;7.30;;;;;;;10.19;82.91;100695.84;219644;1261;141006;-68
2023/09/06 05:07:20;;;;;;;12.20;7.30;;;;;;;10.32;83.05;100694.02;217922;1258;141635;-68
2023/09/06 05:12:24;;;;;;;8.40;6.70;;;;;;;10.49;83.27;100698.48;218251;1257;140784;-69
2023/09/06 05:17:27;;;;;;;15.90;7.90;;;;;;;10.65;83.67;100693.33;217974;1260;140713;-68
2023/09/06 05:22:30;;;;;;;13.90;8.60;;;;;;;10.83;84.02;100695.25;217831;1256;140375;-67
2023/09/06 05:27:35;;;;;;;9.40;8.20;;;;;;;11.03;84.18;100691.94;218047;1260;141086;-66
2023/09/06 05:32:39;;;;;;;12.90;9.10;;;;;;;11.23;84.46;100693.59;217573;1258;140277;-66
2023/09/06 05:37:43;;;;;;;11.60;10.10;;;;;;;11.44;84.59;100686.86;217987;1262;142464;-68
2023/09/06 05:42:47;;;;;;;13.70;9.00;;;;;;;11.67;85.12;100690.30;217667;1261;140297;-69
2023/09/06 05:47:51;;;;;;;9.60;8.20;;;;;;;11.92;85.59;100688.33;218467;1257;141514;-67
2023/09/06 05:52:55;;;;;;;12.20;9.00;;;;;;;12.18;85.94;100690.13;217706;1257;139950;-68
2023/09/06 05:57:58;;;;;;;13.80;9.70;;;;;;;12.43;86.12;100689.06;218190;1258;141063;-68
2023/09/06 06:03:02;;;;;;;14.30;8.90;;;;;;;12.70;86.32;100690.23;218525;1257;143021;-68
2023/09/06 06:08:06;;;;;;;13.00;8.60;;;;;;;12.95;86.18;100692.85;217721;1257;140738;-69
2023/09/06 06:13:11;;;;;;;11.70;8.50;;;;;;;13.20;86.48;100694.70;217773;1260;141045;-68
2023/09/06 06:18:16;;;;;;;12.10;8.50;;;;;;;13.43;86.54;100696.92;217871;1257;140971;-70
2023/09/06 06:23:19;;;;;;;10.90;8.30;;;;;;;13.66;86.36;100700.59;218204;1260;140036;-66
2023/09/06 06:28:22;;;;;;;9.00;8.20;;;;;;;13.89;86.15;100700.64;218880;1259;141734;-67
2023/09/06 06:33:27;;;;;;;12.60;8.40;;;;;;;14.16;86.43;100703.17;218022;1258;139252;-68
2023/09/06 06:38:30;;;;;;;8.60;7.40;;;;;;;14.43;86.17;100711.50;218378;1257;141103;-69
2023/09/06 06:43:37;;;;;;;12.70;8.20;;;;;;;14.75;86.30;100711.10;218912;1258;140085;-70
2023/09/06 06:48:41;;;;;;;14.30;9.00;;;;;;;15.18;85.86;100714.28;217382;1258;141414;-70
2023/09/06 06:53:45;;;;;;;14.20;8.40;;;;;;;15.70;85.51;100703.73;217968;1260;141396;-70
2023/09/06 06:58:48;;;;;;;14.90;7.90;;;;;;;16.17;84.82;100705.04;217658;1260;140323;-69
2023/09/06 07:03:52;;;;;;;8.70;7.20;;;;;;;16.88;83.99;100702.34;219548;1257;140737;-70
2023/09/06 07:08:56;;;;;;;12.30;8.50;;;;;;;17.75;83.59;100706.34;219071;1257;141630;-76
2023/09/06 07:14:00;;;;;;;10.80;7.00;;;;;;;18.93;82.33;100708.09;219305;1257;140070;-73
2023/09/06 07:19:03;;;;;;;11.40;8.00;;;;;;;20.53;81.34;100705.32;219530;1257;140848;-70
2023/09/06 07:24:09;;;;;;;12.80;6.90;;;;;;;22.26;79.30;100715.45;217933;1260;140383;-69
2023/09/06 07:29:13;;;;;;;10.50;7.20;;;;;;;23.43;76.42;100722.25;218860;1257;140309;-71
2023/09/06 07:34:17;;;;;;;11.40;7.50;;;;;;;24.20;74.03;100726.90;218320;1257;139667;-76
2023/09/06 07:39:22;;;;;;;8.20;7.20;;;;;;;24.76;71.50;100728.29;217625;1260;140027;-68
2023/09/06 07:44:29;;;;;;;6.60;5.90;;;;;;;25.25;69.22;100724.83;218836;1260;141949;-72
2023/09/06 07:49:33;;;;;;;7.20;5.70;;;;;;;25.79;67.53;100727.02;217715;1257;139044;-69
2023/09/06 07:54:37;;;;;;;7.10;4.70;;;;;;;26.14;65.52;100728.73;217435;1257;139160;-72
2023/09/06 07:59:40;;;;;;;7.80;5.40;;;;;;;26.26;63.93;100735.02;217651;1257;140279;-75
2023/09/06 08:04:45;;;;;;;9.70;5.60;;;;;;;26.14;62.15;100732.12;218191;1257;139274;-72
2023/09/06 08:09:53;;;;;;;6.00;4.20;;;;;;;26.22;61.30;100730.75;217562;1257;140473;-72
2023/09/06 08:14:56;;;;;;;8.90;4.40;;;;;;;26.22;60.05;100733.16;217662;1257;139293;-71
2023/09/06 08:20:00;;;;;;;8.10;6.00;;;;;;;26.23;59.51;100741.79;217761;1257;140408;-70
2023/09/06 08:25:05;;;;;;;5.10;4.70;;;;;;;26.30;58.82;100737.64;217909;1257;139538;-70
2023/09/06 08:30:11;;;;;;;5.60;5.00;;;;;;;26.46;58.17;100735.37;217909;1257;140316;-69
2023/09/06 08:35:17;;;;;;;5.70;4.30;;;;;;;26.51;57.80;100743.33;219099;1256;140194;-70
2023/09/06 08:40:21;;;;;;;5.40;4.90;;;;;;;26.55;56.68;100740.27;218094;1257;205597;-70
2023/09/06 08:45:25;;;;;;;8.40;5.00;;;;;;;26.60;56.01;100742.61;217876;1257;140375;-70
2023/09/06 08:50:32;;;;;;;8.80;4.90;;;;;;;26.77;55.81;100738.89;218812;1256;139238;-69
2023/09/06 08:55:37;;;;;;;5.40;4.90;;;;;;;26.91;54.57;100740.08;217746;1260;140159;-70
2023/09/06 09:00:42;;;;;;;5.10;4.60;;;;;;;26.90;53.87;100739.56;217464;1257;141362;-68
2023/09/06 09:05:45;;;;;;;5.00;3.40;;;;;;;27.04;54.06;100743.47;219079;1258;141270;-70
2023/09/06 09:11:10;;;;;;;4.10;3.70;;;;;;;27.00;52.21;100747.02;218709;1257;140790;-69
2023/09/06 09:16:16;;;;;;;4.60;3.50;;;;;;;26.96;52.38;100748.69;218644;1257;140402;-69
2023/09/06 09:21:20;;;;;;;;;;;;;;;27.04;51.49;100746.15;218030;1256;139500;-68
2023/09/06 09:26:24;;;;;;;4.00;3.60;;;;;;;27.24;51.67;100747.45;218353;1257;126646;-67
2023/09/06 09:31:28;;;;;;;5.00;4.50;;;;;;;27.48;51.17;100745.09;218177;1257;140389;-69
2023/09/06 09:36:34;;;;;;;3.40;3.10;;;;;;;27.65;50.43;100752.66;218245;1256;140346;-67
2023/09/06 09:41:43;;;;;;;5.80;3.00;;;;;;;27.61;49.42;100756.34;218736;1256;139463;-68
2023/09/06 09:47:14;;;;;;;9.20;3.80;;;;;;;27.77;49.68;100760.09;217883;1259;139503;-65
2023/09/06 09:52:43;;;;;;;4.70;4.20;;;;;;;28.04;48.85;100758.73;218443;1260;161262;-67
2023/09/06 09:57:52;;;;;;;3.60;3.30;;;;;;;28.22;48.37;100760.52;218055;1256;139558;-69
2023/09/06 10:03:03;;;;;;;5.90;4.70;;;;;;;28.28;47.99;100763.14;218665;1257;140868;-68
2023/09/06 10:08:09;;;;;;;5.10;4.30;;;;;;;28.35;47.76;100766.52;217646;1260;140097;-69
2023/09/06 10:13:15;;;;;;;5.00;3.90;;;;;;;28.28;46.47;100762.48;217859;1260;139491;-68
2023/09/06 10:18:19;;;;;;;16.10;3.80;;;;;;;28.20;46.83;100765.82;217448;1256;139862;-69
2023/09/06 10:23:21;;;;;;;5.00;3.70;;;;;;;28.29;46.06;100761.92;217536;1256;139368;-69
2023/09/06 10:28:24;;;;;;;4.60;3.70;;;;;;;28.41;46.17;100764.38;218224;1257;140133;-69
2023/09/06 10:33:35;;;;;;;4.60;4.20;;;;;;;28.42;45.25;100758.85;219280;1257;139601;-69
2023/09/06 10:38:55;;;;;;;4.80;4.30;;;;;;;28.47;45.70;100761.58;218794;1257;139908;-70
2023/09/06 10:44:00;;;;;;;4.60;4.20;;;;;;;28.64;45.24;100755.92;219799;1256;140211;-70
2023/09/06 10:49:22;;;;;;;;;;;;;;;28.41;44.18;100762.27;220153;1256;140442;-70
2023/09/06 10:54:41;;;;;;;6.00;4.30;;;;;;;28.27;44.96;100751.59;220099;1256;612357;-70
2023/09/06 11:00:13;;;;;;;8.60;3.60;;;;;;;28.43;44.29;100746.38;218599;1256;140218;-70
2023/09/06 11:05:37;;;;;;;4.60;4.20;;;;;;;28.54;43.99;100745.05;219047;1257;139433;-68
2023/09/06 11:10:40;;;;;;;7.30;4.40;;;;;;;28.64;43.53;100744.95;217961;1257;140532;-67
2023/09/06 11:15:44;;;;;;;4.20;3.80;;;;;;;28.74;43.14;100739.61;218565;1256;140510;-69
2023/09/06 11:20:50;;;;;;;5.80;4.10;;;;;;;28.94;42.78;100734.94;218303;1256;139662;-69
2023/09/06 11:25:59;;;;;;;;;;;;;;;28.85;42.00;100728.59;218623;1256;140288;-68
2023/09/06 11:31:04;;;;;;;5.20;4.30;;;;;;;28.67;41.68;100733.14;218424;1256;126684;-69
2023/09/06 11:36:11;;;;;;;4.60;3.40;;;;;;;28.64;41.33;100733.52;217385;1257;140820;-69
2023/09/06 11:41:16;;;;;;;4.60;4.10;;;;;;;28.81;41.82;100725.48;218228;1257;141354;-69
2023/09/06 11:46:21;;;;;;;;;;;;;;;28.93;42.11;100724.61;217358;1257;139310;-68
2023/09/06 11:51:28;;;;;;;6.90;3.90;;;;;;;28.90;42.05;100720.75;218333;1256;216852;-69
2023/09/06 11:56:33;;;;;;;4.50;4.00;;;;;;;28.82;41.44;100718.44;217828;1259;139987;-69
2023/09/06 12:01:43;;;;;;;5.70;3.90;;;;;;;28.88;41.98;100721.05;217359;1256;139747;-69
2023/09/06 12:06:51;;;;;;;7.30;3.70;;;;;;;28.89;41.31;100712.33;217787;1257;140360;-70
2023/09/06 12:11:56;;;;;;;5.10;3.90;;;;;;;28.94;41.31;100707.97;217504;1257;140670;-70
2023/09/06 12:17:00;;;;;;;42.30;5.60;;;;;;;28.91;40.87;100700.47;218129;1256;139464;-69
2023/09/06 12:22:05;;;;;;;12.90;3.90;;;;;;;28.77;40.90;100697.00;217636;1256;139914;-69
2023/09/06 12:27:09;;;;;;;4.10;3.70;;;;;;;28.69;40.72;100691.59;218418;1256;141076;-68
2023/09/06 12:32:12;;;;;;;14.10;4.20;;;;;;;28.74;41.09;100692.58;217619;1258;139845;-69
2023/09/06 12:37:17;;;;;;;11.20;5.50;;;;;;;28.65;40.73;100688.23;218703;1258;140692;-70
2023/09/06 12:42:22;;;;;;;3.90;3.60;;;;;;;28.55;40.45;100684.70;219964;1256;141040;-70
2023/09/06 12:47:27;;;;;;;5.50;4.20;;;;;;;28.70;40.49;100682.29;218439;1260;139982;-68
2023/09/06 12:52:34;;;;;;;4.80;4.10;;;;;;;28.68;40.11;100679.42;218945;1256;140196;-69
2023/09/06 12:57:38;;;;;;;12.80;4.90;;;;;;;28.51;39.96;100677.66;220146;1257;140166;-70
2023/09/06 13:02:41;;;;;;;5.20;3.80;;;;;;;28.47;40.67;100673.96;218848;1256;140540;-70
2023/09/06 13:07:45;;;;;;;4.60;4.10;;;;;;;28.53;40.29;100670.59;219743;1256;140893;-69
2023/09/06 13:12:48;;;;;;;5.50;3.90;;;;;;;28.50;40.25;100671.34;218228;1257;141150;-70
2023/09/06 13:17:51;;;;;;;5.40;4.20;;;;;;;28.37;39.98;100661.45;217608;1256;141210;-68
2023/09/06 13:22:54;;;;;;;4.50;4.10;;;;;;;28.32;40.33;100651.20;218645;1256;141289;-69
2023/09/06 13:27:57;;;;;;;4.30;3.90;;;;;;;28.36;40.49;100644.49;218275;1257;139566;-69
2023/09/06 13:33:00;;;;;;;3.70;3.30;;;;;;;28.40;40.53;100646.21;217408;1256;139513;-69
2023/09/06 13:38:03;;;;;;;16.50;5.60;;;;;;;28.13;39.57;100644.54;218031;1256;140219;-68
2023/09/06 13:43:05;;;;;;;4.20;3.80;;;;;;;28.00;40.11;100643.23;218113;1256;140243;-69
2023/09/06 13:48:09;;;;;;;4.90;3.70;;;;;;;27.89;40.12;100635.02;218194;1260;141025;-68
2023/09/06 13:53:14;;;;;;;4.10;3.80;;;;;;;27.96;40.16;100631.39;217638;1257;139713;-68
2023/09/06 13:58:17;;;;;;;4.00;3.60;;;;;;;27.90;40.12;100626.66;218158;1260;139580;-70
2023/09/06 14:03:20;;;;;;;4.80;3.80;;;;;;;27.83;40.13;100628.75;217532;1257;141718;-70
2023/09/06 14:08:24;;;;;;;3.80;3.40;;;;;;;27.74;40.17;100624.77;218181;1257;139500;-69
2023/09/06 14:13:28;;;;;;;5.60;4.00;;;;;;;27.69;40.05;100626.75;217684;1256;140403;-71
2023/09/06 14:18:31;;;;;;;4.70;3.70;;;;;;;27.61;39.64;100620.23;220398;1256;141606;-70
2023/09/06 14:23:35;;;;;;;4.90;3.80;;;;;;;27.63;39.89;100616.11;218568;1260;140804;-68
2023/09/06 14:28:39;;;;;;;4.40;4.00;;;;;;;27.67;40.67;100617.77;218248;1256;139821;-70
2023/09/06 14:33:43;;;;;;;18.30;4.20;;;;;;;27.65;40.80;100616.80;218532;1256;141614;-70
2023/09/06 14:38:47;;;;;;;67.90;8.60;;;;;;;27.60;41.06;100618.16;218281;1256;141312;-69
2023/09/06 14:43:50;;;;;;;5.10;3.80;;;;;;;27.49;41.38;100620.25;218684;1256;140331;-69
2023/09/06 14:48:54;;;;;;;5.90;4.20;;;;;;;27.39;40.55;100619.44;220272;1256;140557;-70
2023/09/06 14:53:57;;;;;;;6.90;4.20;;;;;;;27.30;40.05;100617.06;220262;1256;139272;-70
2023/09/06 14:59:01;;;;;;;3.70;3.20;;;;;;;27.27;40.64;100611.46;219901;1256;140052;-67
2023/09/06 15:04:05;;;;;;;5.50;3.60;;;;;;;27.26;40.57;100611.62;219439;1256;139764;-68
2023/09/06 15:09:09;;;;;;;;;;;;;;;27.20;41.77;100612.26;218156;1256;139789;-70
2023/09/06 15:14:12;;;;;;;14.10;12.80;;;;;;;27.09;42.55;100616.44;218270;1256;126306;-67
2023/09/06 15:19:16;;;;;;;5.50;4.90;;;;;;;27.01;42.51;100610.31;218797;1256;140834;-68
2023/09/06 15:24:20;;;;;;;4.70;4.30;;;;;;;26.93;43.03;100611.75;217973;1257;140757;-67
2023/09/06 15:29:24;;;;;;;17.20;4.50;;;;;;;26.82;43.62;100609.63;218995;1257;140191;-69
2023/09/06 15:34:28;;;;;;;7.00;3.70;;;;;;;26.69;43.86;100613.63;217866;1259;140538;-69
2023/09/06 15:39:34;;;;;;;3.40;3.20;;;;;;;26.54;44.33;100613.83;218248;1257;140058;-68
2023/09/06 15:44:38;;;;;;;4.00;3.60;;;;;;;26.39;44.81;100616.76;217884;1259;139631;-68
2023/09/06 15:49:43;;;;;;;3.30;3.00;;;;;;;26.21;45.26;100613.32;218117;1257;210380;-69
2023/09/06 15:54:47;;;;;;;4.80;3.40;;;;;;;26.02;45.77;100614.42;219058;1260;139449;-68
2023/09/06 15:59:51;;;;;;;7.10;3.90;;;;;;;25.80;46.15;100612.66;217673;1256;140431;-68
2023/09/06 16:04:58;;;;;;;4.90;3.60;;;;;;;25.60;47.12;100614.78;219281;1256;139633;-69
2023/09/06 16:10:10;;;;;;;41.60;6.00;;;;;;;25.40;48.54;100611.76;217497;1260;139413;-68
2023/09/06 16:15:22;;;;;;;9.50;3.60;;;;;;;25.16;49.23;100611.31;218422;1257;139651;-68
2023/09/06 16:20:27;;;;;;;4.20;3.80;;;;;;;24.89;49.70;100618.00;217618;1260;141119;-67
2023/09/06 16:25:36;;;;;;;6.60;4.20;;;;;;;24.64;50.25;100620.11;218542;1256;140136;-67
2023/09/06 16:30:44;;;;;;;5.20;4.00;;;;;;;24.38;51.21;100622.30;217838;1256;140830;-68
2023/09/06 16:35:48;;;;;;;3.90;3.30;;;;;;;24.12;51.63;100620.20;218848;1256;140258;-69
2023/09/06 16:40:54;;;;;;;5.60;3.40;;;;;;;23.82;52.22;100621.23;219479;1256;141300;-69
2023/09/06 16:45:58;;;;;;;;;;;;;;;23.49;52.77;100626.42;218851;1256;140673;-71
2023/09/06 16:51:06;;;;;;;5.30;4.30;;;;;;;23.14;53.38;100634.80;220773;1256;128068;-71
2023/09/06 16:56:09;;;;;;;6.30;4.30;;;;;;;22.85;54.03;100635.98;219316;1256;139605;-70
2023/09/06 17:01:13;;;;;;;5.10;4.00;;;;;;;22.61;54.34;100634.90;218888;1257;139995;-70
2023/09/06 17:06:16;;;;;;;3.60;3.40;;;;;;;22.35;54.95;100630.14;218174;1257;140790;-70
2023/09/06 17:11:20;;;;;;;4.20;3.80;;;;;;;22.10;55.26;100633.20;217740;1257;140331;-69
2023/09/06 17:16:24;;;;;;;3.30;3.00;;;;;;;21.77;55.60;100625.51;218823;1260;140091;-70
2023/09/06 17:21:37;;;;;;;4.70;4.20;;;;;;;21.49;56.12;100634.08;218024;1257;139980;-71
2023/09/06 17:26:45;;;;;;;4.20;3.90;;;;;;;21.08;56.89;100642.36;219251;1256;141684;-71
2023/09/06 17:31:52;;;;;;;9.90;4.40;;;;;;;20.63;57.67;100643.89;217978;1257;139862;-71
2023/09/06 17:36:57;;;;;;;5.50;4.00;;;;;;;20.26;58.52;100638.55;219177;1259;141617;-71
2023/09/06 17:42:02;;;;;;;5.90;4.10;;;;;;;20.06;59.16;100645.30;217761;1257;139977;-71
2023/09/06 17:47:07;;;;;;;9.40;4.50;;;;;;;19.73;59.68;100651.75;218348;1257;143318;-69
2023/09/06 17:52:16;;;;;;;7.60;5.90;;;;;;;19.39;60.15;100657.33;218021;1257;140428;-71
2023/09/06 17:57:21;;;;;;;10.20;6.10;;;;;;;19.03;60.85;100659.83;217446;1259;140676;-70
2023/09/06 18:02:27;;;;;;;8.00;6.40;;;;;;;18.81;61.44;100666.55;217902;1257;140767;-71
2023/09/06 18:07:34;;;;;;;18.30;9.00;;;;;;;18.66;61.95;100665.80;218698;1257;141082;-70
2023/09/06 18:12:38;;;;;;;19.20;10.50;;;;;;;18.53;62.42;100663.57;217652;1257;140699;-69
2023/09/06 18:17:45;;;;;;;19.00;10.10;;;;;;;18.31;62.67;100665.20;218077;1257;140600;-69
2023/09/06 18:22:50;;;;;;;51.30;12.40;;;;;;;18.02;63.16;100670.19;218312;1259;141001;-70
2023/09/06 18:27:54;;;;;;;17.90;9.70;;;;;;;17.94;63.88;100673.59;218000;1257;141673;-68
2023/09/06 18:32:58;;;;;;;20.40;11.10;;;;;;;17.93;64.40;100676.00;220277;1256;142529;-69
2023/09/06 18:38:01;;;;;;;19.80;9.60;;;;;;;17.81;64.53;100677.17;220272;1257;142919;-69
2023/09/06 18:43:06;;;;;;;19.00;10.70;;;;;;;17.64;64.73;100676.67;220294;1256;140693;-68
2023/09/06 18:48:14;;;;;;;37.80;14.20;;;;;;;17.50;65.22;100678.14;219574;1256;140808;-69
2023/09/06 18:53:17;;;;;;;23.40;12.30;;;;;;;17.43;65.69;100682.67;218221;1257;141314;-69
2023/09/06 18:58:21;;;;;;;34.20;15.00;;;;;;;17.38;65.97;100680.65;217809;1257;141050;-68
2023/09/06 19:03:28;;;;;;;39.40;14.80;;;;;;;17.24;66.06;100685.63;218569;1257;140832;-66
2023/09/06 19:08:32;;;;;;;30.80;16.10;;;;;;;17.03;66.17;100685.59;218083;1260;140592;-67
2023/09/06 19:13:36;;;;;;;23.80;13.50;;;;;;;16.81;66.55;100684.39;217449;1256;140413;-67
2023/09/06 19:18:39;;;;;;;25.20;11.40;;;;;;;16.66;67.09;100682.59;218932;1256;141177;-67
2023/09/06 19:23:44;;;;;;;22.60;8.50;;;;;;;16.51;67.34;100678.25;217679;1257;140442;-67
2023/09/06 19:28:47;;;;;;;20.20;7.70;;;;;;;16.37;67.97;100684.45;218999;1257;141500;-68
2023/09/06 19:33:51;;;;;;;7.90;6.10;;;;;;;16.18;68.15;100685.85;217858;1261;142462;-68
2023/09/06 19:38:55;;;;;;;10.80;7.80;;;;;;;16.03;68.93;100684.93;217688;1257;141152;-71
2023/09/06 19:43:59;;;;;;;9.80;6.40;;;;;;;15.99;69.20;100686.06;217897;1256;140327;-71
2023/09/06 19:49:04;;;;;;;19.00;6.80;;;;;;;15.79;68.93;100689.00;217909;1260;140519;-74
2023/09/06 19:54:12;;;;;;;6.20;5.60;;;;;;;15.60;69.41;100691.11;217729;1257;140530;-76
2023/09/06 19:59:18;;;;;;;12.40;7.30;;;;;;;15.57;69.96;100693.13;217665;1257;140394;-72
2023/09/06 20:04:23;;;;;;;14.70;7.30;;;;;;;15.51;69.96;100698.53;217556;1256;231557;-73
2023/09/06 20:09:30;;;;;;;12.30;7.40;;;;;;;15.37;70.34;100699.50;217672;1257;140866;-72
2023/09/06 20:14:36;;;;;;;7.50;5.50;;;;;;;15.33;70.65;100704.48;218514;1256;141477;-71
2023/09/06 20:19:41;;;;;;;8.60;6.30;;;;;;;15.24;70.81;100704.02;219120;1259;141215;-73
2023/09/06 20:24:46;;;;;;;17.70;6.90;;;;;;;15.22;71.15;100706.47;218422;1257;140316;-68
2023/09/06 20:29:52;;;;;;;17.00;7.70;;;;;;;15.14;71.20;100709.00;219578;1257;141965;-70
2023/09/06 20:34:57;;;;;;;14.90;8.60;;;;;;;15.08;71.31;100710.72;220413;1256;140528;-70
2023/09/06 20:40:03;;;;;;;14.10;9.40;;;;;;;15.00;71.57;100716.20;219028;1260;250036;-69
2023/09/06 20:45:07;;;;;;;12.50;8.20;;;;;;;14.98;71.70;100718.36;218723;1262;141359;-69
2023/09/06 20:50:14;;;;;;;15.50;9.50;;;;;;;14.91;71.76;100719.67;218445;1262;222472;-70
2023/09/06 20:55:18;;;;;;;12.80;8.50;;;;;;;14.80;71.97;100726.45;217877;1262;141403;-69
2023/09/06 21:00:24;;;;;;;17.20;8.80;;;;;;;14.71;72.07;100728.45;217989;1256;141346;-68
2023/09/06 21:05:35;;;;;;;12.30;9.60;;;;;;;14.68;72.49;100733.17;218060;1257;140035;-68
2023/09/06 21:10:41;;;;;;;11.80;9.10;;;;;;;14.65;72.49;100735.38;218274;1260;142096;-68
2023/09/06 21:15:48;;;;;;;16.10;10.60;;;;;;;14.59;72.71;100738.53;218590;1256;140766;-69
2023/09/06 21:20:53;;;;;;;19.60;12.00;;;;;;;14.52;72.61;100737.35;217524;1260;141725;-70
2023/09/06 21:25:56;;;;;;;16.50;9.90;;;;;;;14.46;72.81;100739.64;217557;1262;140299;-71
2023/09/06 21:31:02;;;;;;;19.20;10.90;;;;;;;14.39;73.01;100743.38;217557;1262;141133;-68
2023/09/06 21:36:08;;;;;;;27.50;14.50;;;;;;;14.35;73.23;100738.65;218041;1261;140805;-68
2023/09/06 21:41:12;;;;;;;17.30;12.30;;;;;;;14.30;73.30;100739.48;217544;1257;141013;-69
2023/09/06 21:46:15;;;;;;;17.30;11.10;;;;;;;14.16;73.21;100745.91;217739;1262;141686;-68
2023/09/06 21:51:19;;;;;;;20.80;13.70;;;;;;;13.99;73.59;100742.75;217830;1260;141752;-68
2023/09/06 21:56:23;;;;;;;20.10;11.10;;;;;;;13.86;73.77;100738.35;218280;1257;140737;-69
2023/09/06 22:01:27;;;;;;;19.20;11.10;;;;;;;13.76;74.37;100737.64;218135;1261;142213;-68
2023/09/06 22:06:33;;;;;;;14.20;10.10;;;;;;;13.75;75.04;100739.50;218011;1256;140135;-69
2023/09/06 22:11:40;;;;;;;16.10;10.50;;;;;;;13.75;74.77;100743.52;217883;1258;140606;-69
2023/09/06 22:16:45;;;;;;;15.70;11.00;;;;;;;13.68;74.70;100739.10;218913;1261;141044;-69
2023/09/06 22:21:49;;;;;;;15.60;11.30;;;;;;;13.61;74.67;100745.68;219282;1260;141723;-69
2023/09/06 22:26:55;;;;;;;17.60;12.00;;;;;;;13.57;74.78;100744.30;218945;1260;141788;-68
2023/09/06 22:32:00;;;;;;;18.90;12.00;;;;;;;13.48;74.89;100753.87;219618;1258;140666;-68
2023/09/06 22:37:04;;;;;;;17.80;11.40;;;;;;;13.36;75.06;100760.31;217406;1262;140561;-68
2023/09/06 22:42:08;;;;;;;13.80;9.90;;;;;;;13.29;75.59;100766.05;220034;1260;141794;-68
2023/09/06 22:47:12;;;;;;;17.60;10.90;;;;;;;13.28;76.06;100766.20;218461;1261;142105;-69
2023/09/06 22:52:15;;;;;;;25.90;12.60;;;;;;;13.30;75.99;100773.74;218862;1261;573415;-68
2023/09/06 22:57:18;;;;;;;15.00;10.40;;;;;;;13.31;76.14;100773.98;218138;1258;141363;-68
2023/09/06 23:02:23;;;;;;;17.20;10.70;;;;;;;13.25;75.93;100771.58;217563;1258;141121;-71